createdAt,value
2022-09-20T00:00:48.902Z,98700.84
2022-09-20T00:03:16.956Z,98706.06
2022-09-20T00:05:45.645Z,98702.56
2022-09-20T00:08:16.261Z,98711.34
2022-09-20T00:10:43.400Z,98704.19
2022-09-20T00:13:12.495Z,98692.94
2022-09-20T00:15:46.435Z,98703.34
2022-09-20T00:18:13.766Z,98708.59
2022-09-20T00:20:48.864Z,98702.47
2022-09-20T00:23:15.822Z,98700.81
2022-09-20T00:25:42.688Z,98716.50
2022-09-20T00:28:10.706Z,98716.59
2022-09-20T00:30:38.492Z,98707.72
2022-09-20T00:33:05.253Z,98711.31
2022-09-20T00:35:31.985Z,98712.28
2022-09-20T00:37:58.522Z,98708.72
2022-09-20T00:40:27.258Z,98707.06
2022-09-20T00:42:53.959Z,98706.22
2022-09-20T00:45:28.101Z,98711.34
2022-09-20T00:48:03.892Z,98707.06
2022-09-20T00:50:44.836Z,98699.25
2022-09-20T00:53:26.651Z,98697.38
2022-09-20T00:55:58.975Z,98701.00
2022-09-20T00:58:27.508Z,98702.81
2022-09-20T01:00:56.807Z,98704.53
2022-09-20T01:03:27.728Z,98709.81
2022-09-20T01:05:55.928Z,98712.44
2022-09-20T01:08:25.321Z,98710.69
2022-09-20T01:10:52.736Z,98706.47
2022-09-20T01:13:19.306Z,98715.22
2022-09-20T01:15:48.385Z,98722.34
2022-09-20T01:18:16.658Z,98716.22
2022-09-20T01:20:46.244Z,98718.00
2022-09-20T01:23:35.114Z,98727.69
2022-09-20T01:26:30.890Z,98718.00
2022-09-20T01:29:29.714Z,98717.22
2022-09-20T01:32:01.845Z,98715.47
2022-09-20T01:34:32.932Z,98713.53
2022-09-20T01:37:07.421Z,98711.81
2022-09-20T01:39:52.381Z,98708.44
2022-09-20T01:42:20.749Z,98709.34
2022-09-20T01:45:05.532Z,98709.22
2022-09-20T01:47:32.502Z,98709.31
2022-09-20T01:50:07.543Z,98708.44
2022-09-20T01:52:52.906Z,98714.53
2022-09-20T01:55:38.181Z,98706.75
2022-09-20T01:58:27.416Z,98708.47
2022-09-20T02:01:16.114Z,98701.31
2022-09-20T02:03:52.795Z,98700.50
2022-09-20T02:06:39.407Z,98706.63
2022-09-20T02:09:39.521Z,98708.22
2022-09-20T02:12:24.654Z,98703.88
2022-09-20T02:15:08.508Z,98706.41
2022-09-20T02:18:07.608Z,98705.44
2022-09-20T02:21:17.431Z,98701.00
2022-09-20T02:24:17.168Z,98693.84
2022-09-20T02:27:05.481Z,98701.00
2022-09-20T02:29:53.162Z,98698.50
2022-09-20T02:32:51.051Z,98702.75
2022-09-20T02:35:56.245Z,98701.00
2022-09-20T02:38:33.440Z,98695.69
2022-09-20T02:41:37.570Z,98696.56
2022-09-20T02:44:27.488Z,98702.75
2022-09-20T02:47:21.575Z,98701.88
2022-09-20T02:50:05.741Z,98701.06
2022-09-20T02:52:58.671Z,98698.34
2022-09-20T02:55:54.487Z,98701.03
2022-09-20T02:58:46.586Z,98695.81
2022-09-20T03:01:22.287Z,98701.06
2022-09-20T03:04:10.829Z,98699.38
2022-09-20T03:07:15.718Z,98708.97
2022-09-20T03:09:52.289Z,98701.13
2022-09-20T03:12:46.720Z,98705.59
2022-09-20T03:15:44.221Z,98708.38
2022-09-20T03:18:25.322Z,98706.63
2022-09-20T03:21:09.466Z,98710.22
2022-09-20T03:24:17.218Z,98714.44
2022-09-20T03:27:02.057Z,98713.75
2022-09-20T03:29:55.915Z,98722.34
2022-09-20T03:32:40.727Z,98722.28
2022-09-20T03:35:22.035Z,98715.25
2022-09-20T03:37:54.571Z,98710.00
2022-09-20T03:41:01.819Z,98717.84
2022-09-20T03:43:49.823Z,98720.34
2022-09-20T03:46:27.277Z,98715.91
2022-09-20T03:49:07.513Z,98720.25
2022-09-20T03:52:05.820Z,98715.09
2022-09-20T03:54:44.574Z,98715.91
2022-09-20T03:57:29.705Z,98711.56
2022-09-20T04:00:03.090Z,98720.28
2022-09-20T04:02:48.375Z,98715.03
2022-09-20T04:05:47.996Z,98715.88
2022-09-20T04:08:35.720Z,98714.94
2022-09-20T04:11:32.393Z,98726.09
2022-09-20T04:14:22.153Z,98722.63
2022-09-20T04:17:03.558Z,98723.63
2022-09-20T04:19:38.236Z,98714.84
2022-09-20T04:22:05.694Z,98718.38
2022-09-20T04:24:40.374Z,98720.13
2022-09-20T04:27:23.174Z,98723.69
2022-09-20T04:30:17.455Z,98720.19
2022-09-20T04:33:02.274Z,98721.91
2022-09-20T04:36:25.207Z,98716.72
2022-09-20T04:39:13.764Z,98721.13
2022-09-20T04:42:09.874Z,98728.13
2022-09-20T04:44:39.207Z,98732.47
2022-09-20T04:47:18.558Z,98727.25
2022-09-20T04:50:22.605Z,98735.09
2022-09-20T04:53:15.829Z,98737.72
2022-09-20T04:55:57.633Z,98728.06
2022-09-20T04:58:54.386Z,98742.09
2022-09-20T05:02:03.823Z,98734.22
2022-09-20T05:05:07.381Z,98736.88
2022-09-20T05:08:16.455Z,98743.75
2022-09-20T05:11:01.983Z,98745.56
2022-09-20T05:13:46.645Z,98747.41
2022-09-20T05:16:28.541Z,98753.63
2022-09-20T05:19:23.843Z,98755.97
2022-09-20T05:22:02.871Z,98761.28
2022-09-20T05:24:42.817Z,98767.47
2022-09-20T05:27:40.888Z,98772.81
2022-09-20T05:30:38.003Z,98768.34
2022-09-20T05:33:18.379Z,98780.56
2022-09-20T05:36:10.134Z,98778.81
2022-09-20T05:38:58.063Z,98779.56
2022-09-20T05:41:52.211Z,98781.22
2022-09-20T05:44:57.811Z,98775.97
2022-09-20T05:47:42.448Z,98778.50
2022-09-20T05:50:45.888Z,98796.75
2022-09-20T05:53:24.728Z,98789.06
2022-09-20T05:56:19.989Z,98786.41
2022-09-20T05:59:14.256Z,98788.03
2022-09-20T06:01:50.051Z,98792.41
2022-09-20T06:05:07.945Z,98798.47
2022-09-20T06:07:58.543Z,98798.38
2022-09-20T06:10:37.307Z,98800.94
2022-09-20T06:13:31.747Z,98796.59
2022-09-20T06:16:01.918Z,98797.41
2022-09-20T06:18:50.408Z,98804.59
2022-09-20T06:21:42.071Z,98802.94
2022-09-20T06:24:43.356Z,98811.59
2022-09-20T06:27:19.517Z,98809.97
2022-09-20T06:29:55.198Z,98810.69
2022-09-20T06:32:21.754Z,98808.97
2022-09-20T06:34:49.141Z,98814.06
2022-09-20T06:37:53.705Z,98814.13
2022-09-20T06:40:46.786Z,98812.47
2022-09-20T06:43:14.556Z,98807.16
2022-09-20T06:45:43.142Z,98826.19
2022-09-20T06:48:11.936Z,98823.50
2022-09-20T06:50:39.201Z,98824.16
2022-09-20T06:53:06.774Z,98832.75
2022-09-20T06:55:40.145Z,98836.09
2022-09-20T06:58:06.767Z,98839.38
2022-09-20T07:00:33.521Z,98827.69
2022-09-20T07:03:00.090Z,98826.56
2022-09-20T07:05:26.808Z,98836.31
2022-09-20T07:08:01.240Z,98835.50
2022-09-20T07:10:28.710Z,98833.66
2022-09-20T07:13:00.518Z,98827.06
2022-09-20T07:15:32.793Z,98828.59
2022-09-20T07:18:00.442Z,98826.59
2022-09-20T07:20:27.819Z,98833.94
2022-09-20T07:22:54.532Z,98832.53
2022-09-20T07:25:21.809Z,98834.84
2022-09-20T07:27:50.800Z,98837.97
2022-09-20T07:30:19.776Z,98831.34
2022-09-20T07:32:46.420Z,98838.22
2022-09-20T07:35:13.366Z,98839.53
2022-09-20T07:37:43.805Z,98840.25
2022-09-20T07:40:11.862Z,98835.84
2022-09-20T07:42:38.806Z,98850.25
2022-09-20T07:45:06.004Z,98846.97
2022-09-20T07:47:33.622Z,98852.28
2022-09-20T07:50:00.215Z,98844.25
2022-09-20T07:52:26.887Z,98855.81
2022-09-20T07:54:53.953Z,98855.16
2022-09-20T07:57:20.599Z,98863.75
2022-09-20T07:59:47.260Z,98861.06
2022-09-20T08:02:15.309Z,98868.41
2022-09-20T08:04:42.092Z,98866.22
2022-09-20T08:07:08.862Z,98872.38
2022-09-20T08:09:35.651Z,98873.50
2022-09-20T08:14:49.404Z,98881.69
2022-09-20T08:17:16.473Z,98875.25
2022-09-20T08:19:44.710Z,98877.41
2022-09-20T08:22:12.842Z,98882.25
2022-09-20T08:24:39.660Z,98877.50
2022-09-20T08:27:06.346Z,98886.84
2022-09-20T08:29:32.932Z,98888.31
2022-09-20T08:32:02.255Z,98884.72
2022-09-20T08:34:29.393Z,98883.91
2022-09-20T08:36:56.722Z,98885.22
2022-09-20T08:42:14.910Z,98885.53
2022-09-20T08:45:00.426Z,98889.91
2022-09-20T08:47:31.047Z,98891.25
2022-09-20T08:49:59.088Z,98888.81
2022-09-20T08:52:36.182Z,98892.81
2022-09-20T08:55:13.888Z,98888.69
2022-09-20T08:57:40.644Z,98901.31
2022-09-20T09:00:17.596Z,98884.03
2022-09-20T09:02:44.774Z,98890.38
2022-09-20T09:05:34.377Z,98888.03
2022-09-20T09:08:06.702Z,98890.03
2022-09-20T09:10:45.115Z,98889.00
2022-09-20T09:13:23.772Z,98885.97
2022-09-20T09:15:58.129Z,98893.03
2022-09-20T09:18:31.959Z,98893.06
2022-09-20T09:20:59.677Z,98896.09
2022-09-20T09:23:28.069Z,98885.09
2022-09-20T09:25:56.310Z,98888.44
2022-09-20T09:28:25.635Z,98888.00
2022-09-20T09:30:52.352Z,98898.13
2022-09-20T09:33:25.824Z,98897.88
2022-09-20T09:36:15.184Z,98896.63
2022-09-20T09:38:47.755Z,98897.06
2022-09-20T09:41:29.879Z,98902.03
2022-09-20T09:44:10.091Z,98898.28
2022-09-20T09:46:40.162Z,98897.53
2022-09-20T09:49:18.267Z,98900.59
2022-09-20T09:52:06.866Z,98898.59
2022-09-20T09:54:44.651Z,98896.69
2022-09-20T09:57:36.097Z,98897.44
2022-09-20T10:00:20.646Z,98900.88
2022-09-20T10:03:00.973Z,98896.91
2022-09-20T10:05:39.501Z,98900.88
2022-09-20T10:08:30.290Z,98898.56
2022-09-20T10:11:01.684Z,98905.66
2022-09-20T10:13:40.856Z,98907.16
2022-09-20T10:16:25.854Z,98894.22
2022-09-20T10:19:01.651Z,98889.44
2022-09-20T10:21:44.515Z,98888.72
2022-09-20T10:24:11.068Z,98887.13
2022-09-20T10:27:02.291Z,98884.00
2022-09-20T10:30:24.219Z,98889.72
2022-09-20T10:32:59.624Z,98876.53
2022-09-20T10:35:56.589Z,98882.03
2022-09-20T10:38:38.223Z,98878.66
2022-09-20T10:41:35.944Z,98875.94
2022-09-20T10:44:20.815Z,98871.53
2022-09-20T10:47:06.893Z,98874.13
2022-09-20T10:50:05.169Z,98875.53
2022-09-20T10:52:57.713Z,98887.09
2022-09-20T10:55:36.778Z,98886.41
2022-09-20T10:58:31.166Z,98885.03
2022-09-20T11:01:09.893Z,98884.06
2022-09-20T11:03:57.990Z,98887.72
2022-09-20T11:06:29.640Z,98883.19
2022-09-20T11:09:00.272Z,98879.97
2022-09-20T11:11:44.058Z,98880.59
2022-09-20T11:14:21.704Z,98880.06
2022-09-20T11:17:12.102Z,98882.16
2022-09-20T11:19:48.620Z,98879.59
2022-09-20T11:22:21.709Z,98885.69
2022-09-20T11:25:04.405Z,98874.88
2022-09-20T11:27:39.950Z,98876.13
2022-09-20T11:30:16.970Z,98868.34
2022-09-20T11:32:50.126Z,98885.50
2022-09-20T11:35:33.032Z,98892.88
2022-09-20T11:38:05.393Z,98894.47
2022-09-20T11:40:37.157Z,98898.31
2022-09-20T11:43:06.578Z,98909.19
2022-09-20T11:45:34.489Z,98908.34
2022-09-20T11:48:16.438Z,98909.47
2022-09-20T11:51:22.450Z,98904.66
2022-09-20T11:54:01.967Z,98906.19
2022-09-20T11:56:32.309Z,98916.66
2022-09-20T11:59:01.665Z,98909.22
2022-09-20T12:01:29.946Z,98914.59
2022-09-20T12:04:31.647Z,98910.19
2022-09-20T12:07:23.054Z,98906.75
2022-09-20T12:10:01.656Z,98902.09
2022-09-20T12:12:38.013Z,98914.34
2022-09-20T12:15:08.516Z,98923.97
2022-09-20T12:17:47.057Z,98925.22
2022-09-20T12:20:32.553Z,98936.25
2022-09-20T12:23:36.738Z,98937.44
2022-09-20T12:26:21.665Z,98939.19
2022-09-20T12:29:00.197Z,98944.75
2022-09-20T12:31:29.790Z,98937.66
2022-09-20T12:34:11.950Z,98939.50
2022-09-20T12:36:43.310Z,98932.28
2022-09-20T12:39:15.167Z,98935.38
2022-09-20T12:42:22.474Z,98925.44
2022-09-20T12:44:48.971Z,98921.97
2022-09-20T12:47:20.631Z,98918.97
2022-09-20T12:50:05.866Z,98922.91
2022-09-20T12:52:55.820Z,98916.78
2022-09-20T12:55:27.646Z,98916.44
2022-09-20T12:58:06.680Z,98917.03
2022-09-20T13:00:34.645Z,98926.06
2022-09-20T13:03:10.294Z,98923.66
2022-09-20T13:05:40.391Z,98929.75
2022-09-20T13:08:27.898Z,98936.91
2022-09-20T13:11:17.318Z,98942.41
2022-09-20T13:13:49.668Z,98938.53
2022-09-20T13:16:49.926Z,98940.28
2022-09-20T13:19:30.782Z,98945.84
2022-09-20T13:22:03.314Z,98946.94
2022-09-20T13:24:38.543Z,98941.47
2022-09-20T13:27:19.323Z,98931.41
2022-09-20T13:29:46.503Z,98931.25
2022-09-20T13:32:23.819Z,98929.91
2022-09-20T13:35:16.923Z,98928.22
2022-09-20T13:37:54.212Z,98928.19
2022-09-20T13:40:24.207Z,98931.69
2022-09-20T13:43:13.023Z,98931.69
2022-09-20T13:45:42.954Z,98928.22
2022-09-20T13:48:10.015Z,98920.84
2022-09-20T13:50:40.079Z,98927.00
2022-09-20T13:53:39.405Z,98920.75
2022-09-20T13:56:12.068Z,98920.72
2022-09-20T13:58:38.882Z,98918.06
2022-09-20T14:01:09.842Z,98920.22
2022-09-20T14:03:36.787Z,98915.72
2022-09-20T14:06:13.617Z,98922.44
2022-09-20T14:08:49.906Z,98930.88
2022-09-20T14:11:19.867Z,98924.84
2022-09-20T14:13:58.185Z,98932.59
2022-09-20T14:16:31.334Z,98935.91
2022-09-20T14:18:59.317Z,98925.94
2022-09-20T14:21:29.119Z,98936.19
2022-09-20T14:24:27.630Z,98927.19
2022-09-20T14:27:03.051Z,98931.66
2022-09-20T14:29:43.452Z,98925.41
2022-09-20T14:32:19.207Z,98933.38
2022-09-20T14:34:51.866Z,98933.50
2022-09-20T14:37:25.594Z,98936.38
2022-09-20T14:39:58.268Z,98924.50
2022-09-20T14:42:42.476Z,98935.34
2022-09-20T14:45:23.489Z,98929.31
2022-09-20T14:47:55.891Z,98943.31
2022-09-20T14:50:29.159Z,98945.84
2022-09-20T14:53:13.846Z,98948.50
2022-09-20T14:56:01.875Z,98945.06
2022-09-20T14:58:28.780Z,98947.63
2022-09-20T15:01:02.971Z,98941.91
2022-09-20T15:03:34.275Z,98951.50
2022-09-20T15:06:01.178Z,98945.34
2022-09-20T15:08:28.138Z,98947.31
2022-09-20T15:10:54.971Z,98953.72
2022-09-20T15:13:21.869Z,98951.31
2022-09-20T15:15:53.914Z,98955.72
2022-09-20T15:18:27.407Z,98957.50
2022-09-20T15:20:55.386Z,98956.72
2022-09-20T15:23:22.324Z,98961.84
2022-09-20T15:25:53.772Z,98959.00
2022-09-20T15:28:21.293Z,98957.16
2022-09-20T15:30:52.670Z,98952.84
2022-09-20T15:33:21.646Z,98957.53
2022-09-20T15:35:49.152Z,98951.63
2022-09-20T15:38:18.560Z,98957.88
2022-09-20T15:40:48.175Z,98958.00
2022-09-20T15:43:17.936Z,98957.19
2022-09-20T15:45:52.863Z,98959.00
2022-09-20T15:48:21.717Z,98960.09
2022-09-20T15:51:06.947Z,98960.44
2022-09-20T15:53:36.172Z,98965.44
2022-09-20T15:56:05.550Z,98965.16
2022-09-20T15:58:36.229Z,98959.91
2022-09-20T16:01:08.289Z,98960.09
2022-09-20T16:03:36.346Z,98967.97
2022-09-20T16:06:06.319Z,98963.63
2022-09-20T16:08:38.370Z,98960.19
2022-09-20T16:11:06.935Z,98956.63
2022-09-20T16:13:33.588Z,98965.59
2022-09-20T16:16:01.358Z,98970.94
2022-09-20T16:18:47.705Z,98974.66
2022-09-20T16:21:16.871Z,98974.88
2022-09-20T16:23:51.393Z,98972.63
2022-09-20T16:26:19.750Z,98978.72
2022-09-20T16:28:47.728Z,98989.22
2022-09-20T16:31:40.120Z,98995.38
2022-09-20T16:34:12.675Z,98988.31
2022-09-20T16:36:41.779Z,98991.06
2022-09-20T16:39:08.740Z,99001.72
2022-09-20T16:41:36.530Z,99002.63
2022-09-20T16:44:03.341Z,99005.22
2022-09-20T16:46:31.618Z,98996.59
2022-09-20T16:49:01.118Z,99003.63
2022-09-20T16:51:38.441Z,99002.88
2022-09-20T16:54:13.143Z,99009.06
2022-09-20T16:56:43.351Z,99013.63
2022-09-20T16:59:10.973Z,99023.22
2022-09-20T17:01:39.509Z,99017.19
2022-09-20T17:04:07.851Z,99026.03
2022-09-20T17:06:36.514Z,99025.31
2022-09-20T17:09:05.018Z,99028.22
2022-09-20T17:11:35.807Z,99035.34
2022-09-20T17:14:02.962Z,99032.78
2022-09-20T17:16:31.859Z,99040.81
2022-09-20T17:19:07.505Z,99047.16
2022-09-20T17:21:36.243Z,99048.03
2022-09-20T17:24:04.421Z,99050.81
2022-09-20T17:26:36.929Z,99052.72
2022-09-20T17:29:05.866Z,99056.31
2022-09-20T17:31:38.074Z,99060.88
2022-09-20T17:34:07.852Z,99063.53
2022-09-20T17:36:38.269Z,99060.97
2022-09-20T17:39:05.441Z,99070.78
2022-09-20T17:41:33.885Z,99069.06
2022-09-20T17:44:02.887Z,99070.88
2022-09-20T17:46:31.915Z,99075.41
2022-09-20T17:49:03.884Z,99071.91
2022-09-20T17:51:33.362Z,99069.34
2022-09-20T17:54:01.530Z,99074.66
2022-09-20T17:56:29.639Z,99076.44
2022-09-20T17:58:57.632Z,99085.25
2022-09-20T18:01:26.342Z,99091.38
2022-09-20T18:03:54.365Z,99094.16
2022-09-20T18:06:24.197Z,99083.72
2022-09-20T18:08:53.601Z,99092.53
2022-09-20T18:11:23.568Z,99091.72
2022-09-20T18:13:50.133Z,99097.88
2022-09-20T18:16:18.089Z,99101.41
2022-09-20T18:18:46.378Z,99108.47
2022-09-20T18:21:21.342Z,99103.31
2022-09-20T18:23:49.419Z,99121.69
2022-09-20T18:26:24.634Z,99112.16
2022-09-20T18:29:01.693Z,99118.31
2022-09-20T18:31:32.611Z,99127.06
2022-09-20T18:34:01.194Z,99122.78
2022-09-20T18:36:30.302Z,99126.34
2022-09-20T18:38:58.320Z,99138.56
2022-09-20T18:41:31.431Z,99137.78
2022-09-20T18:43:58.543Z,99140.44
2022-09-20T18:46:27.065Z,99144.81
2022-09-20T18:48:55.353Z,99149.19
2022-09-20T18:51:22.245Z,99142.19
2022-09-20T18:53:49.058Z,99153.69
2022-09-20T18:56:25.994Z,99156.34
2022-09-20T18:58:57.212Z,99156.34
2022-09-20T19:01:49.070Z,99153.75
2022-09-20T19:04:43.643Z,99147.63
2022-09-20T19:07:28.229Z,99158.16
2022-09-20T19:10:26.544Z,99159.00
2022-09-20T19:12:59.339Z,99156.41
2022-09-20T19:16:03.058Z,99150.31
2022-09-20T19:19:07.491Z,99170.41
2022-09-20T19:21:58.753Z,99166.09
2022-09-20T19:24:56.926Z,99171.31
2022-09-20T19:27:24.554Z,99171.38
2022-09-20T19:29:51.513Z,99171.34
2022-09-20T19:32:21.354Z,99191.44
2022-09-20T19:34:53.145Z,99186.22
2022-09-20T19:37:47.442Z,99188.81
2022-09-20T19:40:37.105Z,99193.22
2022-09-20T19:43:03.867Z,99193.19
2022-09-20T19:46:13.501Z,99196.72
2022-09-20T19:48:48.410Z,99191.47
2022-09-20T19:51:17.244Z,99195.84
2022-09-20T19:53:44.140Z,99199.34
2022-09-20T19:56:16.704Z,99193.22
2022-09-20T19:58:45.068Z,99199.34
2022-09-20T20:01:12.034Z,99199.34
2022-09-20T20:03:39.351Z,99204.59
2022-09-20T20:06:26.680Z,99206.38
2022-09-20T20:09:03.836Z,99208.13
2022-09-20T20:11:41.251Z,99209.00
2022-09-20T20:14:21.053Z,99209.84
2022-09-20T20:17:05.969Z,99210.72
2022-09-20T20:20:00.836Z,99219.47
2022-09-20T20:22:59.362Z,99224.69
2022-09-20T20:25:41.506Z,99216.84
2022-09-20T20:28:09.317Z,99221.19
2022-09-20T20:30:36.157Z,99221.22
2022-09-20T20:33:05.226Z,99223.84
2022-09-20T20:35:32.273Z,99229.09
2022-09-20T20:37:58.964Z,99233.44
2022-09-20T20:40:25.492Z,99236.91
2022-09-20T20:43:02.104Z,99238.69
2022-09-20T20:45:29.681Z,99239.53
2022-09-20T20:47:58.832Z,99236.06
2022-09-20T20:50:27.104Z,99245.66
2022-09-20T20:52:57.334Z,99254.41
2022-09-20T20:55:24.739Z,99244.78
2022-09-20T20:57:58.360Z,99250.91
2022-09-20T21:00:26.368Z,99252.63
2022-09-20T21:03:02.815Z,99251.75
2022-09-20T21:05:29.295Z,99256.13
2022-09-20T21:07:57.913Z,99258.72
2022-09-20T21:10:24.704Z,99258.72
2022-09-20T21:12:54.718Z,99254.38
2022-09-20T21:15:21.589Z,99256.97
2022-09-20T21:17:52.612Z,99257.88
2022-09-20T21:20:20.294Z,99261.34
2022-09-20T21:22:47.007Z,99263.97
2022-09-20T21:25:13.737Z,99264.84
2022-09-20T21:27:40.420Z,99267.44
2022-09-20T21:30:07.729Z,99269.22
2022-09-20T21:32:34.913Z,99270.06
2022-09-20T21:35:01.479Z,99270.94
2022-09-20T21:37:28.011Z,99268.31
2022-09-20T21:39:54.767Z,99273.53
2022-09-20T21:42:21.349Z,99280.53
2022-09-20T21:44:47.897Z,99278.78
2022-09-20T21:47:20.262Z,99283.16
2022-09-20T21:49:47.688Z,99286.66
2022-09-20T21:52:14.658Z,99292.75
2022-09-20T21:54:41.313Z,99288.38
2022-09-20T21:57:08.098Z,99285.78
2022-09-20T21:59:34.665Z,99293.63
2022-09-20T22:02:01.202Z,99291.84
2022-09-20T22:04:29.299Z,99291.00
2022-09-20T22:06:56.035Z,99291.88
2022-09-20T22:09:24.300Z,99299.72
2022-09-20T22:11:50.975Z,99296.22
2022-09-20T22:14:19.812Z,99294.47
2022-09-20T22:16:48.510Z,99293.59
2022-09-20T22:19:17.151Z,99291.88
2022-09-20T22:21:46.658Z,99302.31
2022-09-20T22:24:14.834Z,99296.22
2022-09-20T22:26:44.182Z,99297.09
2022-09-20T22:29:11.042Z,99297.91
2022-09-20T22:31:45.716Z,99292.69
2022-09-20T22:34:21.013Z,99290.97
2022-09-20T22:36:48.296Z,99288.34
2022-09-20T22:39:15.564Z,99289.22
2022-09-20T22:41:43.307Z,99292.69
2022-09-20T22:44:10.832Z,99290.09
2022-09-20T22:46:38.625Z,99286.56
2022-09-20T22:49:07.341Z,99283.09
2022-09-20T22:51:34.730Z,99289.19
2022-09-20T22:54:07.099Z,99289.19
2022-09-20T22:56:34.637Z,99289.16
2022-09-20T22:59:06.250Z,99287.41
2022-09-20T23:01:35.933Z,99280.44
2022-09-20T23:04:08.418Z,99288.28
2022-09-20T23:06:40.844Z,99292.66
2022-09-20T23:09:10.045Z,99284.81
2022-09-20T23:11:37.852Z,99287.38
2022-09-20T23:14:06.118Z,99294.34
2022-09-20T23:16:35.345Z,99294.38
2022-09-20T23:19:03.491Z,99297.88
2022-09-20T23:21:30.804Z,99296.97
2022-09-20T23:23:59.933Z,99304.81
2022-09-20T23:26:28.081Z,99310.03
2022-09-20T23:28:57.122Z,99313.50
2022-09-20T23:31:24.577Z,99309.13
2022-09-20T23:33:57.304Z,99311.75
2022-09-20T23:36:25.300Z,99311.75
2022-09-20T23:38:51.881Z,99301.28
2022-09-20T23:41:21.414Z,99311.75
2022-09-20T23:43:48.827Z,99309.13
2022-09-20T23:46:17.440Z,99306.53
2022-09-20T23:48:44.310Z,99306.53
2022-09-20T23:51:13.468Z,99314.34
2022-09-20T23:53:40.676Z,99312.59
2022-09-20T23:56:08.248Z,99318.69
2022-09-20T23:58:37.250Z,99311.69
